createdAt,value
2018-09-17T04:28:29.056Z,7.10
2018-09-17T04:30:58.002Z,7.10
2018-09-17T04:33:27.439Z,7.87
2018-09-17T04:35:56.036Z,7.40
2018-09-17T04:38:24.591Z,7.90
2018-09-17T04:40:53.380Z,8.27
2018-09-17T04:43:21.881Z,7.70
2018-09-17T04:45:50.450Z,8.33
2018-09-17T04:48:18.950Z,10.23
2018-09-17T04:50:47.483Z,8.30
2018-09-17T04:53:15.995Z,8.10
2018-09-17T04:55:44.582Z,7.63
2018-09-17T04:58:13.182Z,7.27
2018-09-17T05:00:41.718Z,7.77
2018-09-17T05:03:10.232Z,6.63
2018-09-17T05:05:38.797Z,7.57
2018-09-17T05:08:07.410Z,8.27
2018-09-17T05:10:35.930Z,8.63
2018-09-17T05:13:04.483Z,8.63
2018-09-17T05:15:33.006Z,7.50
2018-09-17T05:18:01.523Z,8.13
2018-09-17T05:20:30.049Z,6.57
2018-09-17T05:22:58.596Z,7.07
2018-09-17T05:25:27.139Z,8.97
2018-09-17T05:27:55.762Z,11.40
2018-09-17T05:30:24.586Z,10.97
2018-09-17T05:32:53.110Z,8.17
2018-09-17T05:35:21.652Z,12.43
2018-09-17T05:37:50.173Z,12.83
2018-09-17T05:40:18.760Z,14.93
2018-09-17T05:42:47.302Z,16.63
2018-09-17T05:45:15.866Z,13.20
2018-09-17T05:47:44.392Z,10.13
2018-09-17T05:50:12.926Z,12.13
2018-09-17T05:52:41.503Z,8.67
2018-09-17T05:55:10.086Z,7.90
2018-09-17T05:57:38.632Z,10.77
2018-09-17T06:00:07.698Z,10.80
2018-09-17T06:02:36.280Z,9.70
2018-09-17T06:05:04.849Z,9.97
2018-09-17T06:07:33.415Z,16.00
2018-09-17T06:10:02.006Z,15.40
2018-09-17T06:12:30.585Z,11.60
2018-09-17T06:14:59.192Z,14.63
2018-09-17T06:17:27.764Z,10.53
2018-09-17T06:19:56.270Z,10.20
2018-09-17T06:22:24.845Z,11.10
2018-09-17T06:24:53.386Z,8.93
2018-09-17T06:27:22.021Z,10.63
2018-09-17T06:29:50.606Z,11.23
2018-09-17T06:32:19.178Z,8.80
2018-09-17T06:34:47.721Z,9.37
2018-09-17T06:37:16.365Z,7.20
2018-09-17T06:39:44.973Z,10.07
2018-09-17T06:42:13.556Z,8.33
2018-09-17T06:44:42.438Z,7.63
2018-09-17T06:47:11.071Z,7.30
2018-09-17T06:49:39.734Z,7.57
2018-09-17T06:52:08.345Z,8.77
2018-09-17T06:54:36.919Z,8.63
2018-09-17T06:57:05.532Z,10.57
2018-09-17T06:59:34.186Z,8.00
2018-09-17T07:02:02.941Z,8.03
2018-09-17T07:04:31.529Z,10.70
2018-09-17T07:07:00.050Z,8.40
2018-09-17T07:09:28.766Z,8.57
2018-09-17T07:11:57.318Z,8.00
2018-09-17T07:14:25.832Z,7.43
2018-09-17T07:16:54.352Z,9.10
2018-09-17T07:19:22.897Z,6.90
2018-09-17T07:21:51.382Z,9.23
2018-09-17T07:24:19.967Z,8.90
2018-09-17T07:26:48.534Z,9.57
2018-09-17T07:29:17.136Z,9.07
2018-09-17T07:31:45.698Z,8.90
2018-09-17T07:34:14.282Z,6.53
2018-09-17T07:36:42.822Z,6.50
2018-09-17T07:39:12.302Z,7.07
2018-09-17T07:41:40.826Z,8.37
2018-09-17T07:44:09.428Z,7.63
2018-09-17T07:46:37.950Z,8.70
2018-09-17T07:49:06.566Z,7.43
2018-09-17T07:51:35.095Z,6.77
2018-09-17T07:54:03.667Z,7.60
2018-09-17T07:56:32.216Z,7.67
2018-09-17T07:59:00.845Z,6.70
2018-09-17T08:01:29.383Z,5.73
2018-09-17T08:03:57.947Z,6.93
2018-09-17T08:06:26.690Z,6.90
2018-09-17T08:08:55.336Z,9.93
2018-09-17T08:11:23.876Z,7.50
2018-09-17T08:13:52.455Z,5.63
2018-09-17T08:16:21.087Z,7.47
2018-09-17T08:18:49.680Z,5.70
2018-09-17T08:21:18.234Z,8.90
2018-09-17T08:23:46.899Z,10.97
2018-09-17T08:26:15.421Z,11.27
2018-09-17T08:28:44.031Z,22.00
2018-09-17T08:31:12.690Z,15.50
2018-09-17T08:33:41.230Z,19.93
2018-09-17T08:36:09.849Z,25.37
2018-09-17T08:38:38.375Z,13.07
2018-09-17T08:41:07.168Z,9.17
2018-09-17T08:43:35.811Z,8.17
2018-09-17T08:46:04.416Z,7.23
2018-09-17T08:48:33.011Z,11.37
2018-09-17T08:51:01.588Z,8.27
2018-09-17T08:53:30.118Z,8.50
2018-09-17T08:56:03.917Z,8.73
2018-09-17T08:58:39.310Z,8.97
2018-09-17T09:02:11.803Z,11.33
2018-09-17T09:04:45.590Z,9.30
2018-09-17T09:07:19.457Z,9.67
2018-09-17T09:09:48.047Z,15.43
2018-09-17T09:12:18.549Z,10.83
2018-09-17T09:14:48.091Z,12.00
2018-09-17T09:17:16.647Z,12.03
2018-09-17T09:19:45.300Z,12.20
2018-09-17T09:22:13.824Z,12.60
2018-09-17T09:24:42.433Z,8.87
2018-09-17T09:27:11.018Z,10.23
2018-09-17T09:29:39.730Z,8.57
2018-09-17T09:32:08.537Z,8.77
2018-09-17T09:34:37.155Z,14.75
2018-09-17T09:37:05.786Z,11.68
2018-09-17T09:39:35.126Z,10.58
2018-09-17T09:42:03.819Z,9.58
2018-09-17T09:44:33.275Z,8.53
2018-09-17T09:47:05.274Z,9.65
2018-09-17T09:49:34.875Z,9.28
2018-09-17T09:52:03.468Z,8.88
2018-09-17T09:54:32.006Z,7.85
2018-09-17T09:57:00.546Z,8.55
2018-09-17T09:59:29.153Z,6.65
2018-09-17T10:02:04.030Z,8.10
2018-09-17T10:04:34.921Z,9.33
2018-09-17T10:07:05.267Z,7.30
2018-09-17T10:09:39.392Z,9.20
2018-09-17T10:12:13.615Z,8.35
2018-09-17T10:14:48.028Z,8.63
2018-09-17T10:17:22.815Z,11.05
2018-09-17T10:19:52.501Z,7.97
2018-09-17T10:22:21.528Z,10.68
2018-09-17T10:24:50.089Z,8.78
2018-09-17T10:27:19.158Z,8.53
2018-09-17T10:29:47.881Z,10.95
2018-09-17T10:32:16.531Z,7.05
2018-09-17T10:34:45.204Z,9.20
2018-09-17T10:37:13.889Z,8.08
2018-09-17T10:39:42.909Z,5.53
2018-09-17T10:42:11.486Z,7.12
2018-09-17T10:44:40.037Z,11.73
2018-09-17T10:47:08.622Z,13.48
2018-09-17T10:49:37.150Z,8.08
2018-09-17T10:52:05.745Z,7.25
2018-09-17T10:54:34.338Z,12.43
2018-09-17T10:57:02.896Z,7.28
2018-09-17T10:59:31.463Z,6.85
2018-09-17T11:02:00.022Z,13.50
2018-09-17T11:04:28.634Z,9.10
2018-09-17T11:06:57.202Z,7.58
2018-09-17T11:09:25.752Z,4.62
2018-09-17T11:11:54.290Z,9.88
2018-09-17T11:14:22.858Z,9.98
2018-09-17T11:16:51.441Z,8.63
2018-09-17T11:19:20.005Z,6.65
2018-09-17T11:21:48.554Z,6.85
2018-09-17T11:24:17.159Z,6.62
2018-09-17T11:26:45.762Z,5.42
2018-09-17T11:29:14.358Z,6.62
2018-09-17T11:31:42.871Z,6.05
2018-09-17T11:34:11.438Z,7.05
2018-09-17T11:36:40.011Z,4.55
2018-09-17T11:39:10.161Z,7.60
2018-09-17T11:41:39.066Z,9.80
2018-09-17T11:44:07.622Z,12.73
2018-09-17T11:46:36.197Z,7.72
2018-09-17T11:49:04.781Z,11.33
2018-09-17T11:51:33.326Z,13.80
2018-09-17T11:54:01.955Z,14.68
2018-09-17T11:56:30.484Z,12.53
2018-09-17T11:58:59.290Z,9.30
2018-09-17T12:01:33.663Z,6.20
2018-09-17T12:04:07.839Z,6.70
2018-09-17T12:06:42.053Z,6.28
2018-09-17T12:09:11.425Z,9.58
2018-09-17T12:11:43.296Z,7.72
2018-09-17T12:14:23.046Z,7.95
2018-09-17T12:16:54.523Z,9.50
2018-09-17T12:19:26.079Z,9.78
2018-09-17T12:22:00.164Z,10.58
2018-09-17T12:24:30.777Z,7.47
2018-09-17T12:26:59.998Z,10.00
2018-09-17T12:29:31.232Z,7.15
2018-09-17T12:32:00.142Z,9.60
2018-09-17T12:34:31.646Z,7.70
2018-09-17T12:37:00.442Z,7.25
2018-09-17T12:39:29.322Z,7.37
2018-09-17T12:42:00.296Z,8.63
2018-09-17T12:44:29.348Z,6.53
2018-09-17T12:47:00.355Z,6.58
2018-09-17T12:49:29.583Z,5.55
2018-09-17T12:51:59.285Z,7.17
2018-09-17T12:54:30.177Z,7.05
2018-09-17T12:57:00.347Z,7.78
2018-09-17T12:59:33.154Z,6.65
2018-09-17T13:02:03.389Z,6.97
2018-09-17T13:04:38.292Z,6.87
2018-09-17T13:07:06.832Z,4.40
2018-09-17T13:09:35.355Z,6.70
2018-09-17T13:12:03.935Z,6.00
2018-09-17T13:14:33.188Z,4.17
2018-09-17T13:17:02.206Z,4.22
2018-09-17T13:19:30.813Z,7.12
2018-09-17T13:22:00.149Z,7.58
2018-09-17T13:24:29.459Z,6.33
2018-09-17T13:26:58.790Z,6.95
2018-09-17T13:29:28.893Z,5.33
2018-09-17T13:31:57.726Z,6.60
2018-09-17T13:34:26.961Z,5.28
2018-09-17T13:36:55.731Z,3.35
2018-09-17T13:39:24.591Z,5.17
2018-09-17T13:41:53.392Z,4.15
2018-09-17T13:44:23.062Z,5.10
2018-09-17T13:46:52.152Z,6.90
2018-09-17T13:49:22.280Z,7.53
2018-09-17T13:51:53.679Z,4.70
2018-09-17T13:54:24.265Z,6.80
2018-09-17T13:56:53.830Z,6.20
2018-09-17T13:59:23.479Z,5.97
2018-09-17T14:01:54.028Z,9.20
2018-09-17T14:04:32.530Z,4.78
2018-09-17T14:07:08.657Z,6.42
2018-09-17T14:09:39.307Z,5.33
2018-09-17T14:12:12.171Z,6.12
2018-09-17T14:14:46.336Z,4.20
2018-09-17T14:17:15.373Z,4.30
2018-09-17T14:19:45.046Z,8.28
2018-09-17T14:22:15.976Z,6.87
2018-09-17T14:24:45.541Z,6.58
2018-09-17T14:27:14.523Z,4.72
2018-09-17T14:29:46.073Z,5.80
2018-09-17T14:32:21.551Z,5.20
2018-09-17T14:34:52.558Z,12.78
2018-09-17T14:37:23.241Z,6.47
2018-09-17T14:39:53.280Z,6.55
2018-09-17T14:42:29.734Z,5.62
2018-09-17T14:45:05.033Z,9.38
2018-09-17T14:47:35.556Z,5.15
2018-09-17T14:50:06.528Z,3.85
2018-09-17T14:52:36.236Z,6.62
2018-09-17T14:55:04.967Z,5.20
2018-09-17T14:57:34.526Z,6.20
2018-09-17T15:00:03.261Z,4.83
2018-09-17T15:02:31.790Z,5.85
2018-09-17T15:05:00.351Z,5.17
2018-09-17T15:07:28.951Z,4.33
2018-09-17T15:09:57.525Z,4.37
2018-09-17T15:12:26.078Z,6.00
2018-09-17T15:14:55.221Z,4.62
2018-09-17T15:17:23.880Z,5.58
2018-09-17T15:19:53.439Z,5.40
2018-09-17T15:22:23.354Z,6.35
2018-09-17T15:24:51.876Z,5.45
2018-09-17T15:27:20.406Z,6.65
2018-09-17T15:29:48.993Z,5.03
2018-09-17T15:32:17.647Z,6.53
2018-09-17T15:34:46.200Z,4.47
2018-09-17T15:37:14.759Z,5.47
2018-09-17T15:39:43.380Z,7.37
2018-09-17T15:42:11.955Z,3.85
2018-09-17T15:44:40.556Z,5.75
2018-09-17T15:47:09.131Z,5.53
2018-09-17T15:49:37.725Z,4.30
2018-09-17T15:52:06.324Z,6.00
2018-09-17T15:54:34.906Z,3.72
2018-09-17T15:57:03.542Z,5.33
2018-09-17T15:59:32.556Z,4.10
2018-09-17T16:02:03.459Z,6.30
2018-09-17T16:04:32.119Z,5.00
2018-09-17T16:07:04.104Z,4.42
2018-09-17T16:09:34.014Z,7.75
2018-09-17T16:12:06.274Z,6.65
2018-09-17T16:14:40.106Z,5.28
2018-09-17T16:17:10.510Z,6.83
2018-09-17T16:19:42.217Z,5.53
2018-09-17T16:22:11.202Z,5.80
2018-09-17T16:24:43.905Z,4.65
2018-09-17T16:27:13.683Z,4.12
2018-09-17T16:29:42.618Z,3.35
2018-09-17T16:32:12.079Z,4.95
2018-09-17T16:34:40.984Z,4.67
2018-09-17T16:37:09.915Z,5.85
2018-09-17T16:39:39.412Z,6.55
2018-09-17T16:42:08.071Z,4.62
2018-09-17T16:44:36.712Z,7.05
2018-09-17T16:47:05.417Z,4.30
2018-09-17T16:49:33.973Z,4.08
2018-09-17T16:52:02.664Z,5.60
2018-09-17T16:54:31.244Z,7.15
2018-09-17T16:56:59.774Z,4.80
2018-09-17T16:59:28.367Z,5.30
2018-09-17T17:01:56.900Z,3.30
2018-09-17T17:04:25.463Z,4.10
2018-09-17T17:06:53.980Z,4.12
2018-09-17T17:09:22.613Z,9.13
2018-09-17T17:11:51.645Z,10.50
2018-09-17T17:14:21.930Z,6.58
2018-09-17T17:16:52.849Z,6.03
2018-09-17T17:19:22.010Z,4.00
2018-09-17T17:21:51.947Z,4.92
2018-09-17T17:24:20.621Z,6.78
2018-09-17T17:26:50.520Z,6.58
2018-09-17T17:29:19.421Z,7.22
2018-09-17T17:31:49.595Z,5.03
2018-09-17T17:34:23.967Z,7.35
2018-09-17T17:37:00.032Z,4.17
2018-09-17T17:39:34.091Z,5.25
2018-09-17T17:42:13.675Z,5.83
2018-09-17T17:44:43.269Z,5.08
2018-09-17T17:47:12.456Z,5.65
2018-09-17T17:49:41.098Z,12.20
2018-09-17T17:52:10.239Z,9.18
2018-09-17T17:54:38.921Z,11.97
2018-09-17T17:57:07.633Z,10.70
2018-09-17T17:59:37.220Z,8.93
2018-09-17T18:02:05.838Z,6.95
2018-09-17T18:04:35.376Z,7.35
2018-09-17T18:07:05.785Z,10.60
2018-09-17T18:09:38.521Z,7.40
2018-09-17T18:12:09.146Z,10.23
2018-09-17T18:14:37.833Z,6.92
2018-09-17T18:17:07.800Z,11.20
2018-09-17T18:19:36.710Z,8.88
2018-09-17T18:22:06.432Z,6.83
2018-09-17T18:24:37.505Z,5.70
2018-09-17T18:27:07.138Z,5.00
2018-09-17T18:29:36.822Z,7.10
2018-09-17T18:32:06.474Z,7.72
2018-09-17T18:34:36.082Z,8.33
2018-09-17T18:37:05.589Z,6.22
2018-09-17T18:39:34.430Z,6.20
2018-09-17T18:42:02.988Z,7.33
2018-09-17T18:44:31.583Z,6.87
2018-09-17T18:47:00.268Z,8.90
2018-09-17T18:49:28.831Z,7.12
2018-09-17T18:51:57.646Z,8.00
2018-09-17T18:54:26.479Z,25.52
2018-09-17T18:56:55.168Z,40.92
2018-09-17T18:59:23.728Z,29.80
2018-09-17T19:01:52.434Z,16.40
2018-09-17T19:04:21.034Z,11.60
2018-09-17T19:06:49.711Z,10.75
2018-09-17T19:09:18.487Z,7.65
2018-09-17T19:11:47.112Z,8.48
2018-09-17T19:14:20.938Z,6.62
2018-09-17T19:16:54.510Z,8.03
2018-09-17T19:19:24.899Z,9.38
2018-09-17T19:22:00.242Z,6.20
2018-09-17T19:24:30.023Z,9.88
2018-09-17T19:26:59.727Z,7.55
2018-09-17T19:29:28.866Z,8.73
2018-09-17T19:31:57.449Z,7.35
2018-09-17T19:34:25.982Z,9.33
2018-09-17T19:36:58.819Z,7.45
2018-09-17T19:39:32.947Z,8.78
2018-09-17T19:42:01.638Z,9.90
2018-09-17T19:44:31.926Z,7.70
2018-09-17T19:47:00.613Z,8.55
2018-09-17T19:49:31.280Z,7.92
2018-09-17T19:52:06.346Z,11.85
2018-09-17T19:54:34.970Z,10.48
2018-09-17T19:57:07.898Z,7.65
2018-09-17T19:59:42.271Z,8.20
2018-09-17T20:02:10.845Z,8.78
2018-09-17T20:04:46.562Z,8.88
2018-09-17T20:07:15.252Z,7.72
2018-09-17T20:09:44.490Z,6.85
2018-09-17T20:12:13.982Z,8.35
2018-09-17T20:14:42.788Z,7.78
2018-09-17T20:17:11.296Z,8.90
2018-09-17T20:19:39.912Z,8.10
2018-09-17T20:22:09.744Z,7.22
2018-09-17T20:24:39.330Z,7.40
2018-09-17T20:27:09.191Z,10.75
2018-09-17T20:29:39.562Z,7.95
2018-09-17T20:32:08.143Z,7.83
2018-09-17T20:34:37.773Z,6.83
2018-09-17T20:37:06.338Z,5.70
2018-09-17T20:39:35.483Z,7.45
2018-09-17T20:42:04.101Z,9.13
2018-09-17T20:44:32.668Z,7.85
2018-09-17T20:47:01.555Z,5.90
2018-09-17T20:49:30.139Z,6.08
2018-09-17T20:51:58.692Z,6.97
2018-09-17T20:54:28.221Z,8.13
2018-09-17T20:56:57.441Z,7.05
2018-09-17T20:59:26.241Z,8.98
2018-09-17T21:01:55.273Z,7.08
2018-09-17T21:04:23.856Z,5.85
2018-09-17T21:06:52.447Z,8.17
2018-09-17T21:09:21.013Z,5.33
2018-09-17T21:11:49.566Z,5.17
2018-09-17T21:14:18.306Z,8.05
2018-09-17T21:16:46.872Z,6.60
2018-09-17T21:19:15.468Z,5.40
2018-09-17T21:21:44.213Z,6.45
2018-09-17T21:24:12.853Z,8.17
2018-09-17T21:26:41.413Z,5.97
2018-09-17T21:29:09.984Z,7.13
2018-09-17T21:31:38.551Z,6.70
2018-09-17T21:34:07.165Z,6.33
2018-09-17T21:36:35.698Z,7.08
2018-09-17T21:39:07.025Z,6.33
2018-09-17T21:41:35.551Z,6.80
2018-09-17T21:44:04.279Z,6.37
2018-09-17T21:46:32.806Z,6.27
2018-09-17T21:49:01.342Z,7.80
2018-09-17T21:51:29.931Z,8.10
2018-09-17T21:53:58.436Z,10.23
2018-09-17T21:56:27.024Z,10.00
